createdAt,value
2022-09-28T00:02:08.115Z,6.93
2022-09-28T00:04:37.028Z,7.63
2022-09-28T00:07:04.556Z,7.90
2022-09-28T00:09:32.290Z,8.07
2022-09-28T00:11:59.976Z,7.30
2022-09-28T00:14:27.612Z,6.97
2022-09-28T00:16:55.174Z,6.77
2022-09-28T00:19:22.874Z,7.30
2022-09-28T00:21:51.751Z,6.70
2022-09-28T00:24:24.032Z,7.77
2022-09-28T00:26:54.832Z,7.50
2022-09-28T00:29:24.874Z,7.57
2022-09-28T00:31:53.573Z,7.60
2022-09-28T00:34:21.876Z,8.53
2022-09-28T00:36:50.107Z,7.07
2022-09-28T00:39:19.598Z,7.50
2022-09-28T00:41:47.929Z,7.80
2022-09-28T00:44:37.050Z,7.30
2022-09-28T00:47:17.164Z,8.27
2022-09-28T00:49:48.027Z,7.87
2022-09-28T00:52:17.552Z,8.03
2022-09-28T00:54:48.477Z,8.00
2022-09-28T00:57:18.616Z,8.67
2022-09-28T00:59:46.501Z,7.57
2022-09-28T01:02:14.232Z,7.10
2022-09-28T01:04:41.814Z,7.77
2022-09-28T01:07:10.164Z,7.93
2022-09-28T01:09:40.600Z,7.43
2022-09-28T01:12:10.021Z,8.20
2022-09-28T01:14:37.578Z,8.60
2022-09-28T01:17:09.865Z,7.40
2022-09-28T01:20:08.660Z,8.40
2022-09-28T01:22:53.942Z,7.80
2022-09-28T01:25:26.237Z,7.67
2022-09-28T01:27:56.030Z,6.90
2022-09-28T01:30:23.731Z,7.10
2022-09-28T01:32:55.224Z,6.63
2022-09-28T01:35:26.617Z,7.83
2022-09-28T01:37:57.171Z,8.00
2022-09-28T01:40:27.678Z,7.10
2022-09-28T01:43:00.521Z,6.73
2022-09-28T01:45:31.169Z,7.40
2022-09-28T01:48:01.283Z,8.17
2022-09-28T01:50:30.936Z,7.33
2022-09-28T01:53:06.157Z,6.73
2022-09-28T01:55:35.973Z,7.83
2022-09-28T01:58:11.046Z,7.87
2022-09-28T02:00:41.441Z,7.63
2022-09-28T02:03:12.395Z,9.03
2022-09-28T02:05:49.346Z,8.10
2022-09-28T02:08:22.346Z,7.80
2022-09-28T02:10:56.962Z,6.63
2022-09-28T02:13:29.370Z,7.70
2022-09-28T02:15:59.945Z,7.50
2022-09-28T02:18:27.516Z,7.37
2022-09-28T02:21:00.538Z,8.37
2022-09-28T02:23:30.086Z,8.50
2022-09-28T02:26:02.558Z,8.47
2022-09-28T02:28:32.368Z,8.80
2022-09-28T02:31:00.035Z,8.37
2022-09-28T02:33:31.325Z,9.20
2022-09-28T02:35:59.900Z,8.50
2022-09-28T02:38:29.429Z,8.30
2022-09-28T02:41:05.204Z,8.97
2022-09-28T02:43:40.974Z,9.60
2022-09-28T02:46:15.564Z,9.37
2022-09-28T02:49:10.463Z,8.80
2022-09-28T02:51:53.182Z,9.37
2022-09-28T02:54:48.593Z,9.30
2022-09-28T02:57:28.520Z,10.00
2022-09-28T03:00:05.506Z,8.50
2022-09-28T03:02:36.847Z,9.67
2022-09-28T03:05:14.122Z,9.73
2022-09-28T03:07:46.491Z,10.70
2022-09-28T03:10:18.088Z,9.40
2022-09-28T03:12:46.230Z,10.83
2022-09-28T03:15:22.448Z,10.90
2022-09-28T03:17:50.190Z,10.03
2022-09-28T03:20:18.213Z,10.40
2022-09-28T03:23:00.246Z,9.53
2022-09-28T03:25:33.400Z,10.87
2022-09-28T03:28:01.268Z,10.00
2022-09-28T03:30:32.286Z,10.57
2022-09-28T03:33:00.467Z,10.10
2022-09-28T03:35:30.381Z,9.90
2022-09-28T03:37:58.327Z,11.77
2022-09-28T03:40:31.539Z,10.80
2022-09-28T03:42:59.926Z,12.50
2022-09-28T03:45:27.711Z,13.97
2022-09-28T03:47:56.727Z,17.63
2022-09-28T03:50:24.278Z,16.10
2022-09-28T03:52:51.819Z,16.57
2022-09-28T03:55:19.382Z,17.50
2022-09-28T03:57:54.189Z,17.27
2022-09-28T04:00:22.091Z,19.20
2022-09-28T04:02:49.765Z,19.43
2022-09-28T04:05:18.522Z,19.87
2022-09-28T04:07:46.138Z,19.50
2022-09-28T04:10:14.138Z,21.67
2022-09-28T04:12:41.773Z,22.97
2022-09-28T04:15:10.044Z,22.20
2022-09-28T04:17:40.274Z,23.70
2022-09-28T04:20:14.152Z,21.37
2022-09-28T04:22:50.323Z,21.90
2022-09-28T04:25:18.020Z,22.27
2022-09-28T04:28:03.289Z,23.60
2022-09-28T04:30:31.190Z,23.23
2022-09-28T04:32:58.801Z,24.57
2022-09-28T04:35:29.463Z,25.60
2022-09-28T04:37:58.404Z,24.87
2022-09-28T04:40:26.144Z,25.00
2022-09-28T04:42:54.875Z,24.00
2022-09-28T04:45:22.832Z,24.87
2022-09-28T04:47:51.459Z,24.37
2022-09-28T04:50:54.508Z,24.47
2022-09-28T04:53:25.856Z,25.33
2022-09-28T04:55:58.827Z,26.00
2022-09-28T04:58:27.217Z,26.90
2022-09-28T05:00:57.951Z,26.30
2022-09-28T05:03:45.851Z,27.40
2022-09-28T05:06:32.064Z,24.93
2022-09-28T05:09:05.013Z,27.37
2022-09-28T05:11:32.752Z,28.53
2022-09-28T05:14:00.767Z,26.80
2022-09-28T05:16:30.016Z,27.40
2022-09-28T05:19:34.824Z,28.07
2022-09-28T05:22:06.103Z,27.80
2022-09-28T05:24:42.714Z,26.67
2022-09-28T05:27:10.774Z,27.23
2022-09-28T05:29:38.531Z,27.50
2022-09-28T05:32:24.628Z,26.60
2022-09-28T05:35:11.727Z,27.73
2022-09-28T05:37:43.637Z,26.70
2022-09-28T05:40:13.571Z,26.53
2022-09-28T05:42:41.593Z,26.30
2022-09-28T05:45:10.523Z,25.70
2022-09-28T05:47:41.155Z,24.80
2022-09-28T05:50:11.966Z,25.03
2022-09-28T05:52:40.373Z,25.70
2022-09-28T05:55:10.024Z,27.43
2022-09-28T05:57:39.301Z,25.50
2022-09-28T06:00:09.502Z,27.80
2022-09-28T06:02:59.983Z,26.50
2022-09-28T06:05:28.905Z,28.70
2022-09-28T06:07:57.655Z,27.63
2022-09-28T06:10:25.600Z,24.87
2022-09-28T06:12:59.451Z,25.43
2022-09-28T06:15:29.061Z,26.83
2022-09-28T06:17:58.495Z,24.13
2022-09-28T06:20:49.217Z,27.10
2022-09-28T06:23:18.147Z,29.40
2022-09-28T06:25:46.024Z,27.60
2022-09-28T06:28:15.943Z,29.80
2022-09-28T06:30:44.993Z,26.13
2022-09-28T06:33:17.806Z,25.40
2022-09-28T06:35:45.476Z,25.97
2022-09-28T06:38:13.137Z,27.70
2022-09-28T06:40:40.939Z,27.20
2022-09-28T06:43:10.917Z,27.23
2022-09-28T06:45:58.856Z,25.93
2022-09-28T06:48:46.981Z,27.87
2022-09-28T06:51:20.055Z,27.20
2022-09-28T06:54:10.502Z,24.20
2022-09-28T06:56:41.410Z,27.20
2022-09-28T06:59:09.369Z,29.07
2022-09-28T07:01:40.039Z,28.53
2022-09-28T07:04:28.422Z,31.83
2022-09-28T07:07:16.268Z,25.60
2022-09-28T07:09:55.364Z,27.17
2022-09-28T07:12:43.669Z,29.33
2022-09-28T07:15:29.421Z,26.43
2022-09-28T07:18:02.809Z,24.63
2022-09-28T07:20:35.646Z,23.50
2022-09-28T07:23:18.566Z,20.37
2022-09-28T07:26:08.486Z,23.20
2022-09-28T07:28:56.299Z,24.23
2022-09-28T07:31:33.754Z,27.20
2022-09-28T07:34:23.555Z,26.77
2022-09-28T07:37:07.072Z,28.47
2022-09-28T07:39:55.291Z,28.13
2022-09-28T07:42:22.010Z,27.30
2022-09-28T07:44:49.736Z,28.60
2022-09-28T07:47:18.857Z,29.00
2022-09-28T07:50:07.336Z,27.30
2022-09-28T07:52:41.208Z,27.13
2022-09-28T07:55:20.145Z,27.57
2022-09-28T07:58:08.997Z,27.63
2022-09-28T08:01:01.060Z,26.00
2022-09-28T08:03:29.208Z,25.40
2022-09-28T08:06:00.477Z,25.27
2022-09-28T08:08:28.826Z,27.63
2022-09-28T08:10:57.205Z,27.97
2022-09-28T08:13:45.776Z,27.73
2022-09-28T08:16:33.507Z,28.27
2022-09-28T08:19:14.712Z,27.90
2022-09-28T08:21:45.768Z,28.73
2022-09-28T08:24:15.507Z,29.40
2022-09-28T08:26:44.014Z,30.07
2022-09-28T08:29:13.377Z,30.03
2022-09-28T08:31:50.184Z,31.10
2022-09-28T08:34:38.636Z,32.27
2022-09-28T08:37:10.423Z,32.90
2022-09-28T08:39:58.464Z,30.33
2022-09-28T08:43:02.345Z,27.83
2022-09-28T08:46:01.254Z,29.30
2022-09-28T08:49:13.350Z,28.90
2022-09-28T08:51:57.136Z,31.53
2022-09-28T08:54:49.000Z,30.67
2022-09-28T08:57:30.802Z,26.27
2022-09-28T08:59:59.948Z,28.63
2022-09-28T09:02:33.691Z,28.87
2022-09-28T09:05:19.081Z,24.20
2022-09-28T09:08:09.502Z,25.40
2022-09-28T09:10:49.801Z,23.00
2022-09-28T09:13:52.787Z,22.00
2022-09-28T09:16:33.414Z,26.67
2022-09-28T09:19:30.615Z,26.43
2022-09-28T09:22:33.079Z,24.90
2022-09-28T09:25:05.594Z,24.77
2022-09-28T09:27:44.989Z,21.67
2022-09-28T09:30:17.124Z,23.37
2022-09-28T09:33:05.155Z,23.70
2022-09-28T09:35:51.192Z,23.00
2022-09-28T09:38:58.107Z,23.77
2022-09-28T09:41:40.802Z,21.83
2022-09-28T09:44:44.060Z,21.50
2022-09-28T09:47:33.124Z,22.13
2022-09-28T09:50:12.740Z,23.53
2022-09-28T09:52:47.664Z,20.03
2022-09-28T09:55:18.145Z,21.47
2022-09-28T09:58:05.789Z,19.53
2022-09-28T10:00:42.543Z,18.50
2022-09-28T10:03:23.139Z,18.83
2022-09-28T10:06:00.467Z,20.70
2022-09-28T10:08:29.556Z,18.60
2022-09-28T10:11:07.625Z,19.77
2022-09-28T10:13:39.147Z,18.70
2022-09-28T10:16:21.505Z,18.87
2022-09-28T10:18:56.982Z,20.47
2022-09-28T10:21:43.476Z,20.80
2022-09-28T10:24:29.297Z,19.30
2022-09-28T10:27:00.679Z,19.23
2022-09-28T10:29:31.438Z,19.80
2022-09-28T10:32:00.421Z,17.30
2022-09-28T10:34:35.528Z,17.00
2022-09-28T10:37:11.669Z,18.20
2022-09-28T10:40:06.190Z,16.10
2022-09-28T10:42:36.164Z,17.40
2022-09-28T10:45:08.238Z,15.30
2022-09-28T10:47:39.053Z,14.37
2022-09-28T10:50:20.817Z,12.43
2022-09-28T10:52:49.014Z,13.30
2022-09-28T10:55:58.498Z,12.00
2022-09-28T10:58:28.740Z,14.30
2022-09-28T11:01:06.114Z,15.83
2022-09-28T11:03:35.324Z,13.40
2022-09-28T11:06:08.115Z,13.77
2022-09-28T11:08:40.357Z,13.20
2022-09-28T11:11:10.966Z,15.10
2022-09-28T11:13:45.250Z,12.80
2022-09-28T11:16:21.439Z,12.40
2022-09-28T11:18:50.539Z,13.97
2022-09-28T11:21:20.045Z,16.13
2022-09-28T11:24:08.132Z,16.00
2022-09-28T11:26:43.219Z,13.50
2022-09-28T11:29:22.255Z,14.57
2022-09-28T11:32:03.220Z,13.93
2022-09-28T11:34:58.083Z,13.80
2022-09-28T11:37:51.591Z,13.83
2022-09-28T11:40:40.748Z,8.73
2022-09-28T11:43:16.752Z,8.67
2022-09-28T11:45:51.095Z,8.33
2022-09-28T11:48:22.613Z,10.63
2022-09-28T11:50:54.734Z,8.70
2022-09-28T11:53:28.428Z,6.43
2022-09-28T11:56:08.841Z,7.33
2022-09-28T11:58:40.367Z,5.50
2022-09-28T12:01:18.955Z,5.27
2022-09-28T12:04:26.506Z,4.10
2022-09-28T12:06:59.027Z,3.77
2022-09-28T12:09:37.041Z,4.50
2022-09-28T12:12:22.330Z,5.57
2022-09-28T12:14:52.318Z,5.33
2022-09-28T12:17:23.756Z,5.97
2022-09-28T12:19:55.344Z,5.40
2022-09-28T12:22:27.964Z,4.10
2022-09-28T12:24:56.701Z,3.83
2022-09-28T12:27:29.053Z,4.33
2022-09-28T12:29:59.199Z,3.30
2022-09-28T12:32:30.512Z,3.23
2022-09-28T12:34:58.657Z,3.23
2022-09-28T12:37:40.147Z,3.23
2022-09-28T12:40:25.784Z,3.67
2022-09-28T12:43:11.776Z,3.20
2022-09-28T12:46:10.820Z,2.50
2022-09-28T12:49:33.209Z,1.30
2022-09-28T12:51:48.733Z,2.57
2022-09-28T12:54:32.888Z,2.43
2022-09-28T12:57:11.385Z,2.00
2022-09-28T12:59:40.915Z,2.20
2022-09-28T13:02:38.728Z,2.13
2022-09-28T13:05:18.986Z,1.50
2022-09-28T13:07:51.049Z,1.43
2022-09-28T13:10:25.690Z,2.40
2022-09-28T13:13:17.990Z,2.20
2022-09-28T13:15:54.165Z,1.90
2022-09-28T13:18:24.009Z,2.47
2022-09-28T13:21:03.918Z,2.30
2022-09-28T13:23:35.663Z,1.17
2022-09-28T13:26:13.982Z,1.60
2022-09-28T13:28:42.238Z,1.67
2022-09-28T13:31:10.651Z,1.90
2022-09-28T13:33:40.238Z,1.77
2022-09-28T13:36:38.821Z,1.60
2022-09-28T13:39:42.232Z,1.20
2022-09-28T13:42:12.888Z,1.83
2022-09-28T13:45:18.377Z,1.70
2022-09-28T13:48:12.941Z,1.27
2022-09-28T13:50:52.211Z,1.67
2022-09-28T13:53:25.172Z,1.80
2022-09-28T13:55:58.386Z,1.20
2022-09-28T13:58:30.143Z,1.33
2022-09-28T14:01:01.028Z,1.90
2022-09-28T14:03:43.311Z,2.40
2022-09-28T14:06:23.599Z,1.93
2022-09-28T14:09:10.360Z,1.50
2022-09-28T14:11:43.628Z,2.33
2022-09-28T14:14:27.549Z,1.50
2022-09-28T14:17:25.261Z,1.10
2022-09-28T14:19:54.494Z,1.23
2022-09-28T14:22:24.730Z,1.10
2022-09-28T14:25:02.183Z,1.30
2022-09-28T14:27:55.420Z,1.07
2022-09-28T14:30:26.766Z,0.80
2022-09-28T14:32:57.554Z,0.77
2022-09-28T14:35:29.633Z,2.10
2022-09-28T14:38:18.724Z,1.27
2022-09-28T14:41:12.603Z,1.60
2022-09-28T14:44:02.472Z,1.67
2022-09-28T14:46:39.304Z,1.40
2022-09-28T14:49:50.302Z,1.53
2022-09-28T14:52:39.574Z,1.60
2022-09-28T14:55:14.866Z,1.10
2022-09-28T14:57:43.414Z,1.27
2022-09-28T15:00:18.564Z,1.50
2022-09-28T15:02:49.864Z,1.50
2022-09-28T15:05:21.351Z,1.40
2022-09-28T15:07:51.708Z,1.37
2022-09-28T15:10:27.840Z,1.93
2022-09-28T15:12:56.776Z,1.47
2022-09-28T15:15:31.141Z,1.43
2022-09-28T15:18:06.051Z,1.43
2022-09-28T15:20:38.584Z,1.10
2022-09-28T15:23:06.127Z,1.27
2022-09-28T15:25:35.150Z,1.53
2022-09-28T15:28:16.300Z,1.47
2022-09-28T15:30:44.059Z,1.43
2022-09-28T15:33:41.929Z,1.60
2022-09-28T15:36:16.700Z,4.60
2022-09-28T15:38:55.369Z,1.50
2022-09-28T15:41:24.998Z,1.20
2022-09-28T15:44:08.427Z,1.23
2022-09-28T15:46:37.661Z,1.87
2022-09-28T15:49:06.061Z,1.80
2022-09-28T15:51:47.002Z,2.20
2022-09-28T15:54:19.280Z,2.00
2022-09-28T15:56:52.315Z,2.27
2022-09-28T15:59:26.506Z,2.27
2022-09-28T16:02:07.618Z,2.00
2022-09-28T16:04:50.253Z,2.10
2022-09-28T16:07:24.548Z,1.83
2022-09-28T16:10:00.359Z,2.07
2022-09-28T16:12:32.110Z,1.67
2022-09-28T16:15:03.902Z,3.40
2022-09-28T16:17:33.630Z,1.80
2022-09-28T16:20:03.543Z,1.70
2022-09-28T16:22:33.461Z,2.00
2022-09-28T16:25:02.809Z,1.80
2022-09-28T16:27:33.697Z,2.00
2022-09-28T16:30:16.853Z,2.40
2022-09-28T16:32:51.710Z,2.03
2022-09-28T16:35:22.943Z,2.73
2022-09-28T16:37:58.462Z,2.10
2022-09-28T16:40:26.617Z,2.67
2022-09-28T16:42:56.114Z,2.00
2022-09-28T16:45:24.274Z,2.90
2022-09-28T16:47:53.020Z,3.10
2022-09-28T16:50:22.225Z,3.40
2022-09-28T16:53:16.200Z,4.53
2022-09-28T16:55:44.127Z,4.80
2022-09-28T16:58:13.090Z,5.60
2022-09-28T17:00:43.495Z,4.83
2022-09-28T17:03:14.421Z,5.50
2022-09-28T17:05:42.901Z,5.60
2022-09-28T17:08:17.899Z,4.47
2022-09-28T17:11:13.112Z,4.93
2022-09-28T17:13:39.826Z,4.97
2022-09-28T17:16:11.434Z,4.70
2022-09-28T17:18:40.010Z,5.47
2022-09-28T17:21:11.261Z,5.97
2022-09-28T17:23:41.134Z,5.47
2022-09-28T17:26:09.974Z,7.20
2022-09-28T17:28:37.918Z,6.83
2022-09-28T17:31:11.419Z,5.60
2022-09-28T17:33:39.502Z,6.87
2022-09-28T17:36:08.002Z,6.73
2022-09-28T17:38:36.531Z,6.90
2022-09-28T17:41:06.045Z,7.30
2022-09-28T17:43:34.048Z,6.83
2022-09-28T17:46:02.506Z,6.80
2022-09-28T17:48:31.228Z,7.70
2022-09-28T17:50:59.837Z,9.03
2022-09-28T17:53:28.449Z,8.13
2022-09-28T17:55:56.348Z,9.10
2022-09-28T17:58:25.634Z,8.90
2022-09-28T18:00:53.333Z,9.43
2022-09-28T18:03:22.574Z,9.00
2022-09-28T18:05:54.183Z,10.13
2022-09-28T18:08:22.642Z,8.83
2022-09-28T18:10:51.644Z,10.77
2022-09-28T18:13:35.543Z,9.60
2022-09-28T18:16:05.870Z,11.90
2022-09-28T18:18:38.020Z,12.07
2022-09-28T18:21:06.242Z,11.47
2022-09-28T18:26:31.701Z,11.83
2022-09-28T18:28:59.800Z,12.23
2022-09-28T18:31:43.520Z,12.60
2022-09-28T18:34:19.735Z,12.50
2022-09-28T18:36:48.396Z,15.17
2022-09-28T18:39:16.825Z,14.13
2022-09-28T18:41:44.846Z,14.00
2022-09-28T18:44:13.302Z,15.80
2022-09-28T18:54:05.185Z,71.50
2022-09-28T18:56:44.972Z,112.30
2022-09-28T19:02:44.584Z,19.83
2022-09-28T19:05:54.649Z,25.80
2022-09-28T19:14:33.243Z,20.53
2022-09-28T19:23:30.011Z,19.00
2022-09-28T19:26:16.113Z,20.20
2022-09-28T19:28:44.063Z,20.30
2022-09-28T19:31:13.472Z,19.73
2022-09-28T19:33:45.744Z,24.57
2022-09-28T19:36:34.095Z,20.27
2022-09-28T19:39:07.813Z,21.80
2022-09-28T19:41:51.556Z,20.97
2022-09-28T19:44:29.082Z,20.37
2022-09-28T19:46:58.977Z,19.33
2022-09-28T19:49:33.805Z,19.70
2022-09-28T19:52:13.410Z,20.20
2022-09-28T19:57:30.970Z,19.27
2022-09-28T20:00:02.434Z,20.13
2022-09-28T20:02:34.149Z,22.37
2022-09-28T20:05:01.872Z,19.63
2022-09-28T20:07:33.330Z,20.30
2022-09-28T20:10:01.031Z,22.47
2022-09-28T20:12:28.728Z,19.07
2022-09-28T20:14:56.842Z,19.13
2022-09-28T20:17:24.468Z,20.53
2022-09-28T20:19:52.151Z,21.10
2022-09-28T20:22:20.173Z,21.10
2022-09-28T20:24:49.257Z,20.73
2022-09-28T20:27:17.001Z,21.50
2022-09-28T20:29:44.675Z,21.17
2022-09-28T20:32:12.522Z,21.03
2022-09-28T20:34:40.232Z,20.57
2022-09-28T20:37:07.912Z,21.97
2022-09-28T20:39:35.660Z,20.60
2022-09-28T20:42:04.845Z,20.00
2022-09-28T20:44:32.445Z,20.63
2022-09-28T20:47:00.769Z,19.77
2022-09-28T20:49:28.499Z,20.10
2022-09-28T20:51:56.258Z,20.63
2022-09-28T20:54:23.903Z,20.60
2022-09-28T20:56:51.532Z,22.37
2022-09-28T20:59:22.811Z,21.07
2022-09-28T21:01:52.432Z,22.00
2022-09-28T21:04:20.567Z,19.27
2022-09-28T21:06:48.430Z,20.27
2022-09-28T21:09:16.175Z,20.93
2022-09-28T21:11:43.763Z,21.10
2022-09-28T21:14:11.459Z,19.80
2022-09-28T21:16:40.883Z,19.60
2022-09-28T21:19:08.492Z,18.13
2022-09-28T21:21:36.430Z,19.00
2022-09-28T21:24:04.743Z,19.80
2022-09-28T21:26:32.882Z,19.40
2022-09-28T21:29:01.763Z,18.57
2022-09-28T21:31:32.423Z,18.43
2022-09-28T21:34:01.873Z,18.13
2022-09-28T21:36:29.611Z,18.60
2022-09-28T21:38:57.594Z,18.63
2022-09-28T21:41:25.908Z,19.07
2022-09-28T21:43:53.615Z,17.83
2022-09-28T21:46:21.384Z,17.77
2022-09-28T21:48:52.328Z,16.53
2022-09-28T21:51:21.724Z,18.27
2022-09-28T21:53:49.694Z,18.13
2022-09-28T21:56:17.857Z,16.87
2022-09-28T21:58:45.725Z,16.63
2022-09-28T22:01:15.517Z,17.37
2022-09-28T22:03:44.193Z,17.20
2022-09-28T22:06:12.512Z,16.57
2022-09-28T22:08:41.520Z,16.00
2022-09-28T22:11:10.645Z,16.73
2022-09-28T22:13:41.035Z,16.03
2022-09-28T22:16:09.000Z,17.50
2022-09-28T22:18:36.631Z,16.87
2022-09-28T22:21:07.183Z,15.87
2022-09-28T22:23:35.138Z,15.53
2022-09-28T22:26:07.118Z,16.33
2022-09-28T22:28:35.305Z,17.37
2022-09-28T22:31:03.118Z,18.10
2022-09-28T22:33:30.933Z,18.47
2022-09-28T22:35:58.613Z,17.20
2022-09-28T22:38:26.223Z,16.77
2022-09-28T22:40:55.492Z,16.50
2022-09-28T22:43:25.036Z,17.00
2022-09-28T22:46:01.801Z,17.03
2022-09-28T22:48:29.639Z,18.60
2022-09-28T22:50:57.242Z,17.87
2022-09-28T22:53:25.201Z,15.17
2022-09-28T22:55:53.170Z,18.83
2022-09-28T22:58:20.889Z,18.73
2022-09-28T23:00:50.043Z,18.23
2022-09-28T23:03:18.111Z,18.90
2022-09-28T23:05:52.835Z,18.37
2022-09-28T23:08:20.847Z,18.47
2022-09-28T23:10:48.530Z,17.73
2022-09-28T23:13:16.134Z,16.83
2022-09-28T23:15:43.754Z,17.27
2022-09-28T23:18:12.691Z,16.30
2022-09-28T23:20:40.284Z,17.73
2022-09-28T23:23:07.852Z,18.30
2022-09-28T23:25:35.614Z,16.47
2022-09-28T23:28:03.251Z,16.70
2022-09-28T23:30:31.241Z,16.50
2022-09-28T23:32:58.877Z,17.37
2022-09-28T23:35:28.274Z,17.77
2022-09-28T23:37:55.866Z,17.00
2022-09-28T23:40:23.671Z,14.87
2022-09-28T23:42:51.253Z,17.50
2022-09-28T23:45:20.717Z,15.20
2022-09-28T23:47:48.876Z,16.00
2022-09-28T23:50:16.732Z,15.77
2022-09-28T23:52:48.692Z,14.17
2022-09-28T23:55:16.776Z,16.30
2022-09-28T23:57:45.008Z,15.67
